createdAt,value
2022-09-29T00:00:56.469Z,248.07
2022-09-29T00:01:56.592Z,247.70
2022-09-29T00:02:56.665Z,247.33
2022-09-29T00:03:56.682Z,246.78
2022-09-29T00:04:56.762Z,248.45
2022-09-29T00:05:56.872Z,248.07
2022-09-29T00:06:56.922Z,247.89
2022-09-29T00:07:57.010Z,246.78
2022-09-29T00:08:57.069Z,246.41
2022-09-29T00:09:57.151Z,247.70
2022-09-29T00:10:57.242Z,246.78
2022-09-29T00:11:57.322Z,246.60
2022-09-29T00:12:57.405Z,248.26
2022-09-29T00:13:57.467Z,247.33
2022-09-29T00:14:57.572Z,248.82
2022-09-29T00:15:57.719Z,248.45
2022-09-29T00:16:57.681Z,248.26
2022-09-29T00:18:13.269Z,246.96
2022-09-29T00:18:57.838Z,248.07
2022-09-29T00:19:57.921Z,247.15
2022-09-29T00:20:58.039Z,248.07
2022-09-29T00:21:58.069Z,247.89
2022-09-29T00:22:58.139Z,249.20
2022-09-29T00:23:58.246Z,247.70
2022-09-29T00:24:58.321Z,247.89
2022-09-29T00:25:58.398Z,247.52
2022-09-29T00:26:58.439Z,248.26
2022-09-29T00:27:58.512Z,248.26
2022-09-29T00:28:58.587Z,247.70
2022-09-29T00:29:58.652Z,248.26
2022-09-29T00:30:58.725Z,247.89
2022-09-29T00:31:58.866Z,248.45
2022-09-29T00:32:58.842Z,247.70
2022-09-29T00:33:58.909Z,248.26
2022-09-29T00:34:59.003Z,247.70
2022-09-29T00:35:59.081Z,248.45
2022-09-29T00:36:59.153Z,248.63
2022-09-29T00:37:59.195Z,248.63
2022-09-29T00:38:59.278Z,247.33
2022-09-29T00:39:59.371Z,248.07
2022-09-29T00:40:59.455Z,247.89
2022-09-29T00:41:59.506Z,248.45
2022-09-29T00:42:59.628Z,247.33
2022-09-29T00:43:59.669Z,247.15
2022-09-29T00:44:59.749Z,247.70
2022-09-29T00:45:59.914Z,246.23
2022-09-29T00:46:59.907Z,248.82
2022-09-29T00:47:59.997Z,248.45
2022-09-29T00:49:00.103Z,248.45
2022-09-29T00:50:00.137Z,247.70
2022-09-29T00:51:00.303Z,248.63
2022-09-29T00:52:00.289Z,247.70
2022-09-29T00:53:00.334Z,248.82
2022-09-29T00:54:00.435Z,248.07
2022-09-29T00:55:00.515Z,249.01
2022-09-29T00:56:00.639Z,247.89
2022-09-29T00:57:00.652Z,247.70
2022-09-29T00:58:00.752Z,249.20
2022-09-29T00:59:01.534Z,246.41
2022-09-29T01:00:00.908Z,248.26
2022-09-29T01:01:01.000Z,250.14
2022-09-29T01:02:01.040Z,247.70
2022-09-29T01:03:01.067Z,247.15
2022-09-29T01:04:01.165Z,249.20
2022-09-29T01:05:01.228Z,248.45
2022-09-29T01:06:01.328Z,248.45
2022-09-29T01:07:01.374Z,247.15
2022-09-29T01:08:01.503Z,248.07
2022-09-29T01:09:01.541Z,249.57
2022-09-29T01:10:01.624Z,248.45
2022-09-29T01:11:01.721Z,249.20
2022-09-29T01:12:01.760Z,246.96
2022-09-29T01:13:01.807Z,249.38
2022-09-29T01:14:01.892Z,248.82
2022-09-29T01:15:01.927Z,249.38
2022-09-29T01:16:02.105Z,247.89
2022-09-29T01:17:02.102Z,247.15
2022-09-29T01:18:02.181Z,247.52
2022-09-29T01:19:02.271Z,249.95
2022-09-29T01:20:04.787Z,249.38
2022-09-29T01:21:02.407Z,248.26
2022-09-29T01:22:02.515Z,248.63
2022-09-29T01:23:02.607Z,248.82
2022-09-29T01:24:02.625Z,248.45
2022-09-29T01:25:02.694Z,248.82
2022-09-29T01:26:02.794Z,247.89
2022-09-29T01:27:02.836Z,248.82
2022-09-29T01:28:02.969Z,247.33
2022-09-29T01:29:02.979Z,248.82
2022-09-29T01:30:03.084Z,248.82
2022-09-29T01:31:03.276Z,249.38
2022-09-29T01:32:03.223Z,247.33
2022-09-29T01:33:03.309Z,248.26
2022-09-29T01:34:03.352Z,248.07
2022-09-29T01:35:03.399Z,248.45
2022-09-29T01:36:03.502Z,249.20
2022-09-29T01:37:03.574Z,248.45
2022-09-29T01:38:03.648Z,249.38
2022-09-29T01:39:03.741Z,249.38
2022-09-29T01:40:03.810Z,248.63
2022-09-29T01:41:04.032Z,249.57
2022-09-29T01:42:03.974Z,249.95
2022-09-29T01:43:04.047Z,250.14
2022-09-29T01:44:04.115Z,249.76
2022-09-29T01:45:04.222Z,248.82
2022-09-29T01:46:04.385Z,250.90
2022-09-29T01:47:04.338Z,250.14
2022-09-29T01:48:04.431Z,249.20
2022-09-29T01:49:04.483Z,250.52
2022-09-29T01:50:04.558Z,249.01
2022-09-29T01:51:04.769Z,248.82
2022-09-29T01:52:04.721Z,249.76
2022-09-29T01:53:04.850Z,249.01
2022-09-29T01:54:04.876Z,248.82
2022-09-29T01:55:04.964Z,248.45
2022-09-29T01:56:05.044Z,247.89
2022-09-29T01:57:05.116Z,249.20
2022-09-29T01:58:05.237Z,248.26
2022-09-29T01:59:05.304Z,250.52
2022-09-29T02:00:05.343Z,249.01
2022-09-29T02:01:05.465Z,250.90
2022-09-29T02:02:05.537Z,249.76
2022-09-29T02:03:05.584Z,249.38
2022-09-29T02:04:05.655Z,249.20
2022-09-29T02:05:05.759Z,247.52
2022-09-29T02:06:05.820Z,249.95
2022-09-29T02:07:05.866Z,249.57
2022-09-29T02:08:05.948Z,249.20
2022-09-29T02:09:06.037Z,249.57
2022-09-29T02:10:06.130Z,249.38
2022-09-29T02:11:06.196Z,250.52
2022-09-29T02:12:06.267Z,247.70
2022-09-29T02:13:06.377Z,248.45
2022-09-29T02:14:06.444Z,248.26
2022-09-29T02:15:06.571Z,250.14
2022-09-29T02:16:06.663Z,248.82
2022-09-29T02:17:06.672Z,250.14
2022-09-29T02:18:06.758Z,249.20
2022-09-29T02:19:06.824Z,250.52
2022-09-29T02:20:06.912Z,251.28
2022-09-29T02:21:06.981Z,250.33
2022-09-29T02:22:07.064Z,249.57
2022-09-29T02:23:07.140Z,249.95
2022-09-29T02:24:07.206Z,248.82
2022-09-29T02:25:07.294Z,250.14
2022-09-29T02:26:07.343Z,248.63
2022-09-29T02:27:07.444Z,249.95
2022-09-29T02:28:07.505Z,250.14
2022-09-29T02:29:07.584Z,249.20
2022-09-29T02:30:07.692Z,249.20
2022-09-29T02:31:07.821Z,248.82
2022-09-29T02:32:07.788Z,250.90
2022-09-29T02:33:07.863Z,249.57
2022-09-29T02:34:07.931Z,250.71
2022-09-29T02:35:08.028Z,248.63
2022-09-29T02:36:08.085Z,248.82
2022-09-29T02:37:08.147Z,249.95
2022-09-29T02:38:08.212Z,250.52
2022-09-29T02:39:08.284Z,250.71
2022-09-29T02:40:08.372Z,249.95
2022-09-29T02:41:08.445Z,250.33
2022-09-29T02:42:08.517Z,249.38
2022-09-29T02:43:08.600Z,248.82
2022-09-29T02:44:08.649Z,249.01
2022-09-29T02:45:08.749Z,249.76
2022-09-29T02:46:08.874Z,250.14
2022-09-29T02:47:08.853Z,250.14
2022-09-29T02:48:08.931Z,250.90
2022-09-29T02:49:09.005Z,250.90
2022-09-29T02:50:09.095Z,250.52
2022-09-29T02:51:09.145Z,249.38
2022-09-29T02:52:09.202Z,249.57
2022-09-29T02:53:09.267Z,249.76
2022-09-29T02:54:09.354Z,248.82
2022-09-29T02:55:09.424Z,249.57
2022-09-29T02:56:09.503Z,251.09
2022-09-29T02:57:09.540Z,249.38
2022-09-29T02:58:09.608Z,250.52
2022-09-29T02:59:09.725Z,249.76
2022-09-29T03:00:09.800Z,250.33
2022-09-29T03:01:09.862Z,249.38
2022-09-29T03:02:09.915Z,250.52
2022-09-29T03:03:10.033Z,249.95
2022-09-29T03:04:10.178Z,250.71
2022-09-29T03:05:10.184Z,250.71
2022-09-29T03:06:10.251Z,250.52
2022-09-29T03:07:10.320Z,250.90
2022-09-29T03:08:10.396Z,251.28
2022-09-29T03:09:10.495Z,249.57
2022-09-29T03:10:10.547Z,249.95
2022-09-29T03:11:10.610Z,250.71
2022-09-29T03:12:10.692Z,250.52
2022-09-29T03:13:10.749Z,251.47
2022-09-29T03:14:10.828Z,251.47
2022-09-29T03:15:10.900Z,249.38
2022-09-29T03:16:11.017Z,250.90
2022-09-29T03:17:11.069Z,250.71
2022-09-29T03:18:11.125Z,249.57
2022-09-29T03:19:11.196Z,249.20
2022-09-29T03:20:11.300Z,250.14
2022-09-29T03:21:11.362Z,249.20
2022-09-29T03:22:11.401Z,250.14
2022-09-29T03:23:11.487Z,249.95
2022-09-29T03:24:11.575Z,252.05
2022-09-29T03:25:11.671Z,250.14
2022-09-29T03:26:11.714Z,250.71
2022-09-29T03:27:11.819Z,250.71
2022-09-29T03:28:11.858Z,252.24
2022-09-29T03:29:12.018Z,251.09
2022-09-29T03:30:11.984Z,250.33
2022-09-29T03:31:12.104Z,252.05
2022-09-29T03:32:12.101Z,251.09
2022-09-29T03:33:12.172Z,250.90
2022-09-29T03:34:12.277Z,249.76
2022-09-29T03:35:12.306Z,249.57
2022-09-29T03:36:12.390Z,249.76
2022-09-29T03:37:12.472Z,250.90
2022-09-29T03:38:12.534Z,252.24
2022-09-29T03:39:12.673Z,251.47
2022-09-29T03:40:12.685Z,251.09
2022-09-29T03:41:12.756Z,250.90
2022-09-29T03:42:12.825Z,251.85
2022-09-29T03:43:12.884Z,251.09
2022-09-29T03:44:12.983Z,250.90
2022-09-29T03:45:13.006Z,249.76
2022-09-29T03:46:13.254Z,251.85
2022-09-29T03:47:13.180Z,251.47
2022-09-29T03:48:13.220Z,252.05
2022-09-29T03:49:13.356Z,251.85
2022-09-29T03:50:13.347Z,250.52
2022-09-29T03:51:13.428Z,251.66
2022-09-29T03:52:13.473Z,251.28
2022-09-29T03:53:13.533Z,250.90
2022-09-29T03:54:13.613Z,251.85
2022-09-29T03:55:13.681Z,249.95
2022-09-29T03:56:13.748Z,251.28
2022-09-29T03:57:13.815Z,251.47
2022-09-29T03:58:13.891Z,250.33
2022-09-29T03:59:13.975Z,251.85
2022-09-29T04:00:14.027Z,251.85
2022-09-29T04:01:14.144Z,250.71
2022-09-29T04:02:14.294Z,252.05
2022-09-29T04:03:14.288Z,251.09
2022-09-29T04:04:14.342Z,251.66
2022-09-29T04:05:14.395Z,252.05
2022-09-29T04:06:14.472Z,252.43
2022-09-29T04:07:14.575Z,252.43
2022-09-29T04:08:14.631Z,251.85
2022-09-29T04:09:14.812Z,251.09
2022-09-29T04:10:14.768Z,252.24
2022-09-29T04:11:14.843Z,250.71
2022-09-29T04:12:14.978Z,250.14
2022-09-29T04:13:19.652Z,250.52
2022-09-29T04:14:15.074Z,250.52
2022-09-29T04:15:15.145Z,250.90
2022-09-29T04:16:16.195Z,252.62
2022-09-29T04:17:15.319Z,253.21
2022-09-29T04:18:15.378Z,252.05
2022-09-29T04:19:15.554Z,251.09
2022-09-29T04:20:15.552Z,251.85
2022-09-29T04:21:15.605Z,251.66
2022-09-29T04:22:15.686Z,251.28
2022-09-29T04:23:15.740Z,252.05
2022-09-29T04:24:15.815Z,251.28
2022-09-29T04:25:15.890Z,252.05
2022-09-29T04:26:15.971Z,252.82
2022-09-29T04:27:16.065Z,251.66
2022-09-29T04:28:16.119Z,251.47
2022-09-29T04:29:16.285Z,252.05
2022-09-29T04:30:16.265Z,251.85
2022-09-29T04:31:16.421Z,252.24
2022-09-29T04:32:16.407Z,252.05
2022-09-29T04:33:16.472Z,252.62
2022-09-29T04:34:19.037Z,253.40
2022-09-29T04:35:16.608Z,252.62
2022-09-29T04:36:16.682Z,250.33
2022-09-29T04:37:16.758Z,251.47
2022-09-29T04:38:16.822Z,251.47
2022-09-29T04:39:16.993Z,252.05
2022-09-29T04:40:17.094Z,252.43
2022-09-29T04:41:17.055Z,250.71
2022-09-29T04:42:17.097Z,251.09
2022-09-29T04:43:17.255Z,252.05
2022-09-29T04:44:17.271Z,252.62
2022-09-29T04:45:17.354Z,251.47
2022-09-29T04:46:17.455Z,253.01
2022-09-29T04:47:17.512Z,252.82
2022-09-29T04:48:17.557Z,252.43
2022-09-29T04:49:17.665Z,252.05
2022-09-29T04:50:17.714Z,253.40
2022-09-29T04:51:17.768Z,253.21
2022-09-29T04:52:17.829Z,251.09
2022-09-29T04:53:17.914Z,251.47
2022-09-29T04:54:17.965Z,252.24
2022-09-29T04:55:18.050Z,253.01
2022-09-29T04:56:18.162Z,252.24
2022-09-29T04:57:18.178Z,252.62
2022-09-29T04:58:18.565Z,252.82
2022-09-29T04:59:18.294Z,252.62
2022-09-29T05:00:18.402Z,253.40
2022-09-29T05:01:18.504Z,251.28
2022-09-29T05:02:18.567Z,251.28
2022-09-29T05:03:18.636Z,252.05
2022-09-29T05:04:18.662Z,251.28
2022-09-29T05:05:18.754Z,253.40
2022-09-29T05:06:18.797Z,251.47
2022-09-29T05:07:18.867Z,251.28
2022-09-29T05:08:18.966Z,251.09
2022-09-29T05:09:21.710Z,252.82
2022-09-29T05:10:19.091Z,252.82
2022-09-29T05:11:19.166Z,253.01
2022-09-29T05:12:19.203Z,252.62
2022-09-29T05:13:19.275Z,253.40
2022-09-29T05:14:19.316Z,253.79
2022-09-29T05:15:24.815Z,252.24
2022-09-29T05:16:19.517Z,253.98
2022-09-29T05:17:19.548Z,252.43
2022-09-29T05:18:19.603Z,253.79
2022-09-29T05:19:19.742Z,254.38
2022-09-29T05:20:19.758Z,253.59
2022-09-29T05:21:28.893Z,253.21
2022-09-29T05:22:19.921Z,251.09
2022-09-29T05:23:20.010Z,253.21
2022-09-29T05:24:20.053Z,253.98
2022-09-29T05:25:20.184Z,251.66
2022-09-29T05:26:20.210Z,253.79
2022-09-29T05:27:20.266Z,251.47
2022-09-29T05:28:20.316Z,253.01
2022-09-29T05:29:20.549Z,253.98
2022-09-29T05:30:20.453Z,252.62
2022-09-29T05:31:20.608Z,253.59
2022-09-29T05:32:20.604Z,253.98
2022-09-29T05:33:20.665Z,252.43
2022-09-29T05:34:20.748Z,253.98
2022-09-29T05:35:20.835Z,251.85
2022-09-29T05:36:20.907Z,254.18
2022-09-29T05:37:20.988Z,252.62
2022-09-29T05:38:21.086Z,252.82
2022-09-29T05:39:21.418Z,253.01
2022-09-29T05:40:21.248Z,252.24
2022-09-29T05:41:21.284Z,252.24
2022-09-29T05:42:21.350Z,252.82
2022-09-29T05:43:21.421Z,252.62
2022-09-29T05:44:21.501Z,252.24
2022-09-29T05:45:21.597Z,252.24
2022-09-29T05:46:21.645Z,253.98
2022-09-29T05:47:21.746Z,251.85
2022-09-29T05:48:21.816Z,254.18
2022-09-29T05:49:21.825Z,252.24
2022-09-29T05:50:21.902Z,254.38
2022-09-29T05:51:23.207Z,253.98
2022-09-29T05:52:22.088Z,251.47
2022-09-29T05:53:22.144Z,252.82
2022-09-29T05:54:22.194Z,252.05
2022-09-29T05:55:22.278Z,253.79
2022-09-29T05:56:22.355Z,253.40
2022-09-29T05:57:22.403Z,253.98
2022-09-29T05:58:22.482Z,253.40
2022-09-29T05:59:22.572Z,253.21
2022-09-29T06:00:22.723Z,252.82
2022-09-29T06:01:22.774Z,253.98
2022-09-29T06:02:22.815Z,252.62
2022-09-29T06:03:22.815Z,254.96
2022-09-29T06:04:22.896Z,253.98
2022-09-29T06:05:22.957Z,252.24
2022-09-29T06:06:23.035Z,252.24
2022-09-29T06:07:23.101Z,254.57
2022-09-29T06:08:23.210Z,253.40
2022-09-29T06:09:23.259Z,254.57
2022-09-29T06:10:23.431Z,253.59
2022-09-29T06:11:23.414Z,255.16
2022-09-29T06:12:23.545Z,254.96
2022-09-29T06:13:23.583Z,253.59
2022-09-29T06:14:23.671Z,255.75
2022-09-29T06:15:23.713Z,255.75
2022-09-29T06:16:23.845Z,254.38
2022-09-29T06:17:23.838Z,253.21
2022-09-29T06:18:23.922Z,255.36
2022-09-29T06:19:23.997Z,256.15
2022-09-29T06:20:24.062Z,255.36
2022-09-29T06:21:24.175Z,255.55
2022-09-29T06:22:24.241Z,255.95
2022-09-29T06:23:24.268Z,256.15
2022-09-29T06:24:24.356Z,256.15
2022-09-29T06:25:24.433Z,255.36
2022-09-29T06:26:24.840Z,255.75
2022-09-29T06:27:24.620Z,256.55
2022-09-29T06:28:24.646Z,254.96
2022-09-29T06:29:24.700Z,254.77
2022-09-29T06:30:24.785Z,254.96
2022-09-29T06:31:24.916Z,256.75
2022-09-29T06:32:24.921Z,256.75
2022-09-29T06:33:24.991Z,257.35
2022-09-29T06:34:25.059Z,254.38
2022-09-29T06:35:25.157Z,254.18
2022-09-29T06:36:25.196Z,256.15
2022-09-29T06:37:25.292Z,254.57
2022-09-29T06:38:25.323Z,254.57
2022-09-29T06:39:25.397Z,256.55
2022-09-29T06:40:25.564Z,255.55
2022-09-29T06:41:25.561Z,254.57
2022-09-29T06:42:25.629Z,256.55
2022-09-29T06:43:25.708Z,257.55
2022-09-29T06:44:25.769Z,255.36
2022-09-29T06:45:25.847Z,256.35
2022-09-29T06:46:25.906Z,254.57
2022-09-29T06:47:26.014Z,255.75
2022-09-29T06:48:26.076Z,256.75
2022-09-29T06:49:26.122Z,256.35
2022-09-29T06:50:26.285Z,254.96
2022-09-29T06:51:35.789Z,255.36
2022-09-29T06:52:29.847Z,255.95
2022-09-29T06:53:36.629Z,254.38
2022-09-29T06:54:26.503Z,255.16
2022-09-29T06:55:26.577Z,256.55
2022-09-29T06:56:26.641Z,256.95
2022-09-29T06:57:26.704Z,255.16
2022-09-29T06:58:26.753Z,256.75
2022-09-29T06:59:26.823Z,254.96
2022-09-29T07:00:26.910Z,255.55
2022-09-29T07:01:27.014Z,255.16
2022-09-29T07:02:27.119Z,256.55
2022-09-29T07:03:27.087Z,257.14
2022-09-29T07:04:27.188Z,255.55
2022-09-29T07:05:27.254Z,255.16
2022-09-29T07:06:27.326Z,257.35
2022-09-29T07:07:27.423Z,255.75
2022-09-29T07:08:27.529Z,256.35
2022-09-29T07:09:27.585Z,255.16
2022-09-29T07:10:27.650Z,253.40
2022-09-29T07:11:27.690Z,255.95
2022-09-29T07:12:27.765Z,255.36
2022-09-29T07:13:27.866Z,255.36
2022-09-29T07:14:27.973Z,254.57
2022-09-29T07:15:27.985Z,254.77
2022-09-29T07:16:28.050Z,256.35
2022-09-29T07:17:28.106Z,255.36
2022-09-29T07:18:28.163Z,256.55
2022-09-29T07:19:28.226Z,256.55
2022-09-29T07:20:28.343Z,256.35
2022-09-29T07:21:28.377Z,255.55
2022-09-29T07:22:28.489Z,255.95
2022-09-29T07:23:28.538Z,256.15
2022-09-29T07:24:28.569Z,256.35
2022-09-29T07:25:50.573Z,256.75
2022-09-29T07:26:28.720Z,255.75
2022-09-29T07:27:28.829Z,255.95
2022-09-29T07:28:28.892Z,257.55
2022-09-29T07:29:28.938Z,256.35
2022-09-29T07:30:37.742Z,256.15
2022-09-29T07:31:30.395Z,257.14
2022-09-29T07:32:29.250Z,257.35
2022-09-29T07:33:37.632Z,257.75
2022-09-29T07:34:29.361Z,256.15
2022-09-29T07:35:29.418Z,257.35
2022-09-29T07:36:29.515Z,255.36
2022-09-29T07:37:29.567Z,257.35
2022-09-29T07:38:29.695Z,256.55
2022-09-29T07:39:29.732Z,255.95
2022-09-29T07:40:29.835Z,255.95
2022-09-29T07:41:29.884Z,257.35
2022-09-29T07:42:30.109Z,256.55
2022-09-29T07:43:30.053Z,256.55
2022-09-29T07:44:30.158Z,256.35
2022-09-29T07:45:30.357Z,257.75
2022-09-29T07:46:30.414Z,255.36
2022-09-29T07:47:30.350Z,257.14
2022-09-29T07:48:31.923Z,256.55
2022-09-29T07:49:30.506Z,257.75
2022-09-29T07:50:30.604Z,256.55
2022-09-29T07:51:30.650Z,256.15
2022-09-29T07:52:30.735Z,255.75
2022-09-29T07:53:30.804Z,256.55
2022-09-29T07:54:30.935Z,255.95
2022-09-29T07:55:30.966Z,255.95
2022-09-29T07:56:31.028Z,255.75
2022-09-29T07:57:31.073Z,254.18
2022-09-29T07:58:31.163Z,253.98
2022-09-29T07:59:31.206Z,256.15
2022-09-29T08:00:31.310Z,256.35
2022-09-29T08:01:31.481Z,254.96
2022-09-29T08:02:31.607Z,255.16
2022-09-29T08:03:31.500Z,256.15
2022-09-29T08:04:31.595Z,253.59
2022-09-29T08:05:31.675Z,254.77
2022-09-29T08:06:31.774Z,255.16
2022-09-29T08:07:31.824Z,254.77
2022-09-29T08:08:31.901Z,256.15
2022-09-29T08:09:40.440Z,254.38
2022-09-29T08:10:33.061Z,255.75
2022-09-29T08:11:32.943Z,255.36
2022-09-29T08:12:40.983Z,254.18
2022-09-29T08:13:32.292Z,254.77
2022-09-29T08:14:32.350Z,254.96
2022-09-29T08:15:32.393Z,254.96
2022-09-29T08:16:32.658Z,252.43
2022-09-29T08:17:32.540Z,253.98
2022-09-29T08:18:32.616Z,253.98
2022-09-29T08:19:32.705Z,253.98
2022-09-29T08:20:32.754Z,254.57
2022-09-29T08:21:32.827Z,252.82
2022-09-29T08:22:32.900Z,254.18
2022-09-29T08:23:32.987Z,254.57
2022-09-29T08:24:33.070Z,253.98
2022-09-29T08:25:33.153Z,254.38
2022-09-29T08:26:41.653Z,254.77
2022-09-29T08:27:34.673Z,254.18
2022-09-29T08:28:33.400Z,254.18
2022-09-29T08:29:44.587Z,253.79
2022-09-29T08:30:33.518Z,255.16
2022-09-29T08:31:33.644Z,254.38
2022-09-29T08:32:33.673Z,254.57
2022-09-29T08:33:33.729Z,253.40
2022-09-29T08:34:33.841Z,254.57
2022-09-29T08:35:33.888Z,253.79
2022-09-29T08:36:33.971Z,253.59
2022-09-29T08:37:35.182Z,253.01
2022-09-29T08:38:34.078Z,253.98
2022-09-29T08:39:34.175Z,253.01
2022-09-29T08:40:34.345Z,254.38
2022-09-29T08:41:34.320Z,253.59
2022-09-29T08:42:45.885Z,255.75
2022-09-29T08:43:35.448Z,253.01
2022-09-29T08:44:38.878Z,254.96
2022-09-29T08:45:34.623Z,253.01
2022-09-29T08:46:36.318Z,252.82
2022-09-29T08:47:46.484Z,254.18
2022-09-29T08:48:34.779Z,251.66
2022-09-29T08:49:34.873Z,252.82
2022-09-29T08:50:34.968Z,251.66
2022-09-29T08:51:42.447Z,252.24
2022-09-29T08:52:47.838Z,254.38
2022-09-29T08:53:35.155Z,253.40
2022-09-29T08:54:39.495Z,252.82
2022-09-29T08:55:35.300Z,253.21
2022-09-29T08:56:35.409Z,253.98
2022-09-29T08:57:35.450Z,252.82
2022-09-29T08:58:35.549Z,252.05
2022-09-29T08:59:35.602Z,253.01
2022-09-29T09:00:35.683Z,252.24
2022-09-29T09:01:35.776Z,253.59
2022-09-29T09:02:35.815Z,253.01
2022-09-29T09:03:35.907Z,252.43
2022-09-29T09:04:35.953Z,252.43
2022-09-29T09:05:36.028Z,252.62
2022-09-29T09:06:36.099Z,252.05
2022-09-29T09:07:36.189Z,252.62
2022-09-29T09:08:36.308Z,251.85
2022-09-29T09:09:36.610Z,252.43
2022-09-29T09:10:36.380Z,252.24
2022-09-29T09:11:36.453Z,251.66
2022-09-29T09:12:36.553Z,252.62
2022-09-29T09:13:36.619Z,252.82
2022-09-29T09:14:36.685Z,252.82
2022-09-29T09:15:36.766Z,252.24
2022-09-29T09:16:36.883Z,251.66
2022-09-29T09:17:36.903Z,251.85
2022-09-29T09:18:36.994Z,251.47
2022-09-29T09:19:37.095Z,252.24
2022-09-29T09:20:37.135Z,252.43
2022-09-29T09:21:37.199Z,251.28
2022-09-29T09:23:37.341Z,251.28
2022-09-29T09:24:37.445Z,251.28
2022-09-29T09:25:37.464Z,251.66
2022-09-29T09:26:37.548Z,252.05
2022-09-29T09:27:37.600Z,251.28
2022-09-29T09:28:37.694Z,251.85
2022-09-29T09:29:38.188Z,251.09
2022-09-29T09:30:37.860Z,252.62
2022-09-29T09:31:37.865Z,250.14
2022-09-29T09:32:37.928Z,251.47
2022-09-29T09:33:38.023Z,250.71
2022-09-29T09:34:43.660Z,251.47
2022-09-29T09:35:47.377Z,252.62
2022-09-29T09:36:38.253Z,250.90
2022-09-29T09:37:38.237Z,253.40
2022-09-29T09:38:38.360Z,250.90
2022-09-29T09:39:38.383Z,250.90
2022-09-29T09:40:38.486Z,250.90
2022-09-29T09:41:38.519Z,252.82
2022-09-29T09:42:38.624Z,253.01
2022-09-29T09:43:38.673Z,250.90
2022-09-29T09:44:38.746Z,250.52
2022-09-29T09:45:38.847Z,250.71
2022-09-29T09:46:38.883Z,251.66
2022-09-29T09:47:39.038Z,251.28
2022-09-29T09:48:39.037Z,249.20
2022-09-29T09:49:39.138Z,250.52
2022-09-29T09:50:39.152Z,252.24
2022-09-29T09:51:39.280Z,251.28
2022-09-29T09:52:39.286Z,250.71
2022-09-29T09:53:39.379Z,251.47
2022-09-29T09:54:39.458Z,251.28
2022-09-29T09:55:39.506Z,250.71
2022-09-29T09:56:39.613Z,250.71
2022-09-29T09:57:39.644Z,250.52
2022-09-29T09:58:39.711Z,251.09
2022-09-29T09:59:39.792Z,250.71
2022-09-29T10:00:39.887Z,251.28
2022-09-29T10:01:40.004Z,251.66
2022-09-29T10:02:40.104Z,250.52
2022-09-29T10:03:40.034Z,250.14
2022-09-29T10:04:40.170Z,251.47
2022-09-29T10:05:40.155Z,249.95
2022-09-29T10:06:40.275Z,249.57
2022-09-29T10:07:40.306Z,251.28
2022-09-29T10:08:40.397Z,251.66
2022-09-29T10:09:40.624Z,249.57
2022-09-29T10:10:51.065Z,250.33
2022-09-29T10:11:40.617Z,250.71
2022-09-29T10:12:40.646Z,251.09
2022-09-29T10:13:40.701Z,251.66
2022-09-29T10:14:40.792Z,251.66
2022-09-29T10:15:40.830Z,250.90
2022-09-29T10:16:40.979Z,251.28
2022-09-29T10:17:40.972Z,250.52
2022-09-29T10:18:41.055Z,250.52
2022-09-29T10:19:41.139Z,250.90
2022-09-29T10:20:41.202Z,250.90
2022-09-29T10:21:41.244Z,249.76
2022-09-29T10:22:41.345Z,249.57
2022-09-29T10:23:41.385Z,250.33
2022-09-29T10:24:41.478Z,249.57
2022-09-29T10:25:41.510Z,249.38
2022-09-29T10:26:41.579Z,249.57
2022-09-29T10:27:41.666Z,250.52
2022-09-29T10:28:41.879Z,249.38
2022-09-29T10:29:41.778Z,250.52
2022-09-29T10:30:42.043Z,251.28
2022-09-29T10:31:41.904Z,250.33
2022-09-29T10:32:41.963Z,250.33
2022-09-29T10:33:42.055Z,250.14
2022-09-29T10:34:42.107Z,250.52
2022-09-29T10:35:42.158Z,249.95
2022-09-29T10:36:42.229Z,250.14
2022-09-29T10:37:42.319Z,251.28
2022-09-29T10:38:42.400Z,251.28
2022-09-29T10:39:42.431Z,251.09
2022-09-29T10:40:42.546Z,251.09
2022-09-29T10:41:42.664Z,250.33
2022-09-29T10:42:42.611Z,250.33
2022-09-29T10:43:42.687Z,250.14
2022-09-29T10:44:42.729Z,249.95
2022-09-29T10:45:42.834Z,250.90
2022-09-29T10:46:42.844Z,250.71
2022-09-29T10:47:42.912Z,250.71
2022-09-29T10:48:42.988Z,249.20
2022-09-29T10:49:43.057Z,251.09
2022-09-29T10:50:43.136Z,250.52
2022-09-29T10:51:43.244Z,249.38
2022-09-29T10:52:43.268Z,251.09
2022-09-29T10:53:43.360Z,249.57
2022-09-29T10:54:43.398Z,250.52
2022-09-29T10:55:43.594Z,251.28
2022-09-29T10:56:43.547Z,248.45
2022-09-29T10:57:43.601Z,249.95
2022-09-29T10:58:53.151Z,250.52
2022-09-29T10:59:43.734Z,248.82
2022-09-29T11:00:43.828Z,249.57
2022-09-29T11:01:43.881Z,248.82
2022-09-29T11:02:44.059Z,249.76
2022-09-29T11:03:44.036Z,250.33
2022-09-29T11:04:44.169Z,250.71
2022-09-29T11:05:44.130Z,249.76
2022-09-29T11:06:44.495Z,250.14
2022-09-29T11:07:44.290Z,250.90
2022-09-29T11:08:44.339Z,249.57
2022-09-29T11:09:44.464Z,250.71
2022-09-29T11:10:44.489Z,250.33
2022-09-29T11:11:44.533Z,249.57
2022-09-29T11:12:44.650Z,249.76
2022-09-29T11:13:44.650Z,250.52
2022-09-29T11:14:44.745Z,249.20
2022-09-29T11:15:44.775Z,249.95
2022-09-29T11:16:44.930Z,250.14
2022-09-29T11:17:44.970Z,249.95
2022-09-29T11:18:45.060Z,251.09
2022-09-29T11:19:45.460Z,249.57
2022-09-29T11:20:45.292Z,248.26
2022-09-29T11:21:45.571Z,249.38
2022-09-29T11:22:45.441Z,249.38
2022-09-29T11:23:45.362Z,249.95
2022-09-29T11:24:45.430Z,250.14
2022-09-29T11:25:45.510Z,250.14
2022-09-29T11:26:45.571Z,249.38
2022-09-29T11:27:45.662Z,249.01
2022-09-29T11:28:45.716Z,248.63
2022-09-29T11:29:45.880Z,248.63
2022-09-29T11:30:45.917Z,249.76
2022-09-29T11:31:45.912Z,249.20
2022-09-29T11:32:45.996Z,250.14
2022-09-29T11:33:46.074Z,250.33
2022-09-29T11:34:46.109Z,249.76
2022-09-29T11:35:46.191Z,250.71
2022-09-29T11:36:46.268Z,250.14
2022-09-29T11:37:46.348Z,249.38
2022-09-29T11:38:46.413Z,249.01
2022-09-29T11:39:46.489Z,250.71
2022-09-29T11:40:46.535Z,249.20
2022-09-29T11:41:46.606Z,249.38
2022-09-29T11:42:46.693Z,250.52
2022-09-29T11:43:46.722Z,249.38
2022-09-29T11:44:46.811Z,250.52
2022-09-29T11:45:46.978Z,250.90
2022-09-29T11:46:46.972Z,249.95
2022-09-29T11:47:47.036Z,250.52
2022-09-29T11:48:47.095Z,249.95
2022-09-29T11:49:47.156Z,249.38
2022-09-29T11:50:47.217Z,249.38
2022-09-29T11:51:47.286Z,250.71
2022-09-29T11:52:47.347Z,249.76
2022-09-29T11:53:47.419Z,249.20
2022-09-29T11:54:47.498Z,250.52
2022-09-29T11:55:47.653Z,248.07
2022-09-29T11:56:47.784Z,249.20
2022-09-29T11:57:47.825Z,249.38
2022-09-29T11:58:47.916Z,250.14
2022-09-29T11:59:48.697Z,249.38
2022-09-29T12:00:48.012Z,250.71
2022-09-29T12:01:48.138Z,249.57
2022-09-29T12:02:48.249Z,249.57
2022-09-29T12:03:48.230Z,248.82
2022-09-29T12:04:48.294Z,249.76
2022-09-29T12:05:48.302Z,249.95
2022-09-29T12:06:48.323Z,249.20
2022-09-29T12:07:48.484Z,248.45
2022-09-29T12:08:48.524Z,250.14
2022-09-29T12:09:48.569Z,249.01
2022-09-29T12:10:48.644Z,250.52
2022-09-29T12:12:05.345Z,248.63
2022-09-29T12:13:48.917Z,248.45
2022-09-29T12:14:48.949Z,249.38
2022-09-29T12:15:49.016Z,248.45
2022-09-29T12:16:49.110Z,250.52
2022-09-29T12:17:49.752Z,250.52
2022-09-29T12:18:49.210Z,249.95
2022-09-29T12:19:50.223Z,248.45
2022-09-29T12:20:49.387Z,250.52
2022-09-29T12:21:49.708Z,251.85
2022-09-29T12:22:50.226Z,249.76
2022-09-29T12:23:49.674Z,249.76
2022-09-29T12:24:49.556Z,248.63
2022-09-29T12:25:49.698Z,249.95
2022-09-29T12:26:49.801Z,250.52
2022-09-29T12:27:49.849Z,250.90
2022-09-29T12:28:49.933Z,250.14
2022-09-29T12:29:50.199Z,251.28
2022-09-29T12:30:50.114Z,249.76
2022-09-29T12:31:50.169Z,249.20